KSGU/SGU METAR and TAF weather

Enter ICAO airport designator
Station Type Date Time Source
KSGU METAR 2019/10/23 12:56 UTC NOAA

KSGU 231256Z AUTO 00000KT 10SM CLR 09/M06 A3012 RMK AO2 SLP182 T00941061


Station Type Date Time Source
KSGU Decoded METAR 2019/10/23 12:56 UTC NOAA

St George, St George Municipal Airport, UT, United States (KSGU) 37-05N 113-36W
Oct 23, 2019 - 08:56 AM EDT / 2019.10.23 1256 UTC
Wind: Calm:0
Visibility: 10 mile(s):0
Sky conditions: clear
Temperature: 48.9 F (9.4 C)
Dew Point: 21.0 F (-6.1 C)
Relative Humidity: 32%
Pressure (altimeter): 30.12 in. Hg (1019 hPa)
ob: KSGU 231256Z AUTO 00000KT 10SM CLR 09/M06 A3012 RMK AO2 SLP182 T00941061
cycle: 13

Station Type Date Time Source
KSGU TAF 2019/10/23 12:22 UTC NOAA

TAF KSGU 231120Z 2312/2412 VRB05KT P6SM SKC
FM232000 33007KT P6SM SKC
FM240400 VRB04KT P6SM SKC

Example: see airport list